Time;durP1;ratioP1;P1;durP2;ratioP2;P2;SDS_P1;SDS_P2;PMS_P1;PMS_P2;Temp;Humidity;BMP_temperature;BMP_pressure;BME280_temperature;BME280_humidity;BME280_pressure;Samples;Min_cycle;Max_cycle;Signal;HPM_P1;HPM_P2
2023/01/08 00:01:09;;;;;;;18.58;11.50;;;;;;;-144.31;100.00;58022.63;5056245;28;20797;-61
2023/01/08 00:03:36;;;;;;;20.63;11.45;;;;;;;-144.31;100.00;58022.63;5068456;28;20722;-62
2023/01/08 00:06:03;;;;;;;20.35;10.93;;;;;;;-144.31;100.00;58022.63;5055652;28;20048;-62
2023/01/08 00:08:30;;;;;;;18.45;10.80;;;;;;;-144.31;100.00;58022.63;5051945;28;20040;-61
2023/01/08 00:10:56;;;;;;;20.05;11.80;;;;;;;-144.31;100.00;58022.63;5034453;28;20061;-60
2023/01/08 00:13:21;;;;;;;19.63;11.38;;;;;;;-144.31;100.00;58022.63;5057735;28;20144;-61
2023/01/08 00:15:47;;;;;;;20.60;12.20;;;;;;;-144.31;100.00;58022.63;5049173;28;20032;-59
2023/01/08 00:18:13;;;;;;;19.10;11.50;;;;;;;-144.31;100.00;58022.63;5054155;28;20283;-61
2023/01/08 00:20:44;;;;;;;20.13;11.93;;;;;;;-144.31;100.00;58022.63;5085741;28;20044;-61
2023/01/08 00:23:14;;;;;;;19.02;10.88;;;;;;;-144.31;100.00;58022.63;5085393;28;20049;-61
2023/01/08 00:25:39;;;;;;;22.95;12.43;;;;;;;-144.31;100.00;58022.63;5073160;28;20040;-60
2023/01/08 00:28:05;;;;;;;24.05;13.32;;;;;;;-144.31;100.00;58022.63;5064269;28;20582;-61
2023/01/08 00:30:30;;;;;;;29.98;13.27;;;;;;;-144.31;100.00;58022.63;5047571;28;20524;-60
2023/01/08 00:32:56;;;;;;;31.08;14.00;;;;;;;-144.31;100.00;58022.63;5070691;28;20573;-60
2023/01/08 00:35:21;;;;;;;29.38;13.95;;;;;;;-144.31;100.00;58022.63;5050520;28;20528;-61
2023/01/08 00:37:51;;;;;;;23.98;12.73;;;;;;;-144.31;100.00;58022.63;5060271;28;20025;-60
2023/01/08 00:40:16;;;;;;;30.67;13.55;;;;;;;-144.31;100.00;58022.63;5047814;28;20044;-60
2023/01/08 00:42:42;;;;;;;29.10;13.50;;;;;;;-144.31;100.00;58022.63;5050948;28;20036;-60
2023/01/08 00:45:07;;;;;;;26.30;12.38;;;;;;;-144.31;100.00;58022.63;5056770;28;20144;-59
2023/01/08 00:47:33;;;;;;;24.23;12.88;;;;;;;-144.31;100.00;58022.63;5058457;28;20053;-61
2023/01/08 00:49:58;;;;;;;24.20;12.75;;;;;;;-144.31;100.00;58022.63;5054989;28;20078;-60
2023/01/08 00:52:24;;;;;;;23.55;11.80;;;;;;;-144.31;100.00;58022.63;5049534;28;20028;-59
2023/01/08 00:54:49;;;;;;;21.85;10.75;;;;;;;-144.31;100.00;58022.63;5055993;28;20170;-60
2023/01/08 00:57:15;;;;;;;23.60;10.73;;;;;;;-144.31;100.00;58022.63;5053608;28;20047;-60
2023/01/08 00:59:40;;;;;;;24.65;11.15;;;;;;;-144.31;100.00;58022.63;5046197;28;20039;-60
2023/01/08 01:02:05;;;;;;;22.98;10.38;;;;;;;-144.31;100.00;58022.63;5050708;28;20440;-60
2023/01/08 01:04:31;;;;;;;26.17;11.40;;;;;;;-144.31;100.00;58022.63;5046047;28;20037;-60
2023/01/08 01:06:56;;;;;;;23.02;11.77;;;;;;;-144.31;100.00;58022.63;5048291;28;20059;-60
2023/01/08 01:09:22;;;;;;;24.70;11.65;;;;;;;-144.31;100.00;58022.63;5051494;28;20045;-60
2023/01/08 01:11:47;;;;;;;20.25;12.02;;;;;;;-144.31;100.00;58022.63;5054623;28;20063;-59
2023/01/08 01:14:13;;;;;;;21.00;10.27;;;;;;;-144.31;100.00;58022.63;5052450;28;20047;-62
2023/01/08 01:16:40;;;;;;;20.17;10.10;;;;;;;-144.31;100.00;58022.63;5046924;28;20036;-60
2023/01/08 01:19:05;;;;;;;20.92;11.10;;;;;;;-144.31;100.00;58022.63;5043616;28;20529;-60
2023/01/08 01:21:31;;;;;;;19.92;10.70;;;;;;;-144.31;100.00;58022.63;5054114;28;20136;-59
2023/01/08 01:24:02;;;;;;;21.35;10.30;;;;;;;-144.31;100.00;58022.63;5046031;28;20028;-60
2023/01/08 01:26:28;;;;;;;24.52;11.43;;;;;;;-144.31;100.00;58022.63;5052821;28;20037;-60
2023/01/08 01:28:56;;;;;;;26.60;11.48;;;;;;;-144.31;100.00;58022.63;5045927;28;20086;-61
2023/01/08 01:31:23;;;;;;;25.48;11.75;;;;;;;-144.31;100.00;58022.63;5048314;28;20028;-61
2023/01/08 01:33:49;;;;;;;26.80;12.05;;;;;;;-144.31;100.00;58022.63;5074864;28;20098;-61
2023/01/08 01:36:17;;;;;;;22.88;10.93;;;;;;;-144.31;100.00;58022.63;5055626;28;20401;-61
2023/01/08 01:38:43;;;;;;;;;;;;;;;-144.31;100.00;58022.63;5052544;28;20033;-60
2023/01/08 01:41:21;;;;;;;23.60;12.03;;;;;;;-144.31;100.00;58022.63;5055147;28;20447;-60
2023/01/08 01:43:47;;;;;;;20.52;11.05;;;;;;;-144.31;100.00;58022.63;5047165;28;20284;-61
2023/01/08 01:46:22;;;;;;;25.30;11.30;;;;;;;-144.31;100.00;58022.63;5053242;28;20079;-61
2023/01/08 01:48:52;;;;;;;24.15;11.32;;;;;;;-144.31;100.00;58022.63;5081588;28;20040;-60
2023/01/08 01:51:19;;;;;;;18.80;11.13;;;;;;;-144.31;100.00;58022.63;5044844;28;20256;-60
2023/01/08 01:53:44;;;;;;;23.15;11.02;;;;;;;-144.31;100.00;58022.63;5054850;28;20081;-61
2023/01/08 01:56:10;;;;;;;19.80;10.38;;;;;;;-144.31;100.00;58022.63;5048259;28;20041;-61
2023/01/08 01:58:35;;;;;;;20.42;8.98;;;;;;;-144.31;100.00;58022.63;5053504;28;20324;-61
2023/01/08 02:01:04;;;;;;;19.85;10.30;;;;;;;-144.31;100.00;58022.63;5049236;28;20048;-62
2023/01/08 02:03:34;;;;;;;19.63;10.30;;;;;;;-144.31;100.00;58022.63;5061370;28;20028;-61
2023/01/08 02:06:14;;;;;;;20.50;10.75;;;;;;;-144.31;100.00;58022.63;5054414;28;20474;-59
2023/01/08 02:08:55;;;;;;;22.23;10.27;;;;;;;-144.31;100.00;58022.63;5052863;28;20055;-60
2023/01/08 02:11:39;;;;;;;24.20;12.02;;;;;;;-144.31;100.00;58022.63;5052821;28;20066;-60
2023/01/08 02:14:15;;;;;;;22.27;11.23;;;;;;;-144.31;100.00;58022.63;5059909;28;20049;-60
2023/01/08 02:16:46;;;;;;;31.85;12.30;;;;;;;-144.31;100.00;58022.63;5054731;28;20298;-61
2023/01/08 02:19:27;;;;;;;18.85;9.93;;;;;;;-144.31;100.00;58022.63;5052310;28;20045;-62
2023/01/08 02:21:55;;;;;;;17.00;9.50;;;;;;;-144.31;100.00;58022.63;5053557;28;20096;-61
2023/01/08 02:24:45;;;;;;;15.13;9.00;;;;;;;-144.31;100.00;58022.63;5055294;28;20036;-61
2023/01/08 02:27:16;;;;;;;15.35;8.93;;;;;;;-144.31;100.00;58022.63;5063843;28;20028;-60
2023/01/08 02:29:43;;;;;;;18.50;8.80;;;;;;;-144.31;100.00;58022.63;5052250;28;20828;-60
2023/01/08 02:32:08;;;;;;;18.23;9.60;;;;;;;-144.31;100.00;58022.63;5056388;28;20033;-60
2023/01/08 02:34:34;;;;;;;18.38;8.68;;;;;;;-144.31;100.00;58022.63;5056508;28;20081;-60
2023/01/08 02:37:00;;;;;;;19.65;9.48;;;;;;;-144.31;100.00;58022.63;5049492;28;20099;-60
2023/01/08 02:40:02;;;;;;;21.17;10.40;;;;;;;-144.31;100.00;58022.63;5049411;28;20041;-61
2023/01/08 02:42:30;;;;;;;17.25;9.93;;;;;;;-144.31;100.00;58022.63;5056433;28;20041;-60
2023/01/08 02:45:04;;;;;;;17.63;8.82;;;;;;;-144.31;100.00;58022.63;5053015;28;20036;-61
2023/01/08 02:47:44;;;;;;;16.90;9.30;;;;;;;-144.31;100.00;58022.63;5062453;28;20040;-60
2023/01/08 02:50:20;;;;;;;17.42;9.30;;;;;;;-144.31;100.00;58022.63;5057249;28;20588;-60
2023/01/08 02:52:55;;;;;;;19.75;9.20;;;;;;;-144.31;100.00;58022.63;5051293;28;20678;-60
2023/01/08 02:55:25;;;;;;;14.35;8.57;;;;;;;-144.31;100.00;58022.63;5051599;28;20036;-61
2023/01/08 02:57:52;;;;;;;17.60;8.85;;;;;;;-144.31;100.00;58022.63;5046728;28;20057;-60
2023/01/08 03:00:19;;;;;;;15.52;8.55;;;;;;;-144.31;100.00;58022.63;5050039;28;20040;-60
2023/01/08 03:02:46;;;;;;;13.27;7.72;;;;;;;-144.31;100.00;58022.63;5057199;28;20123;-59
2023/01/08 03:05:20;;;;;;;14.05;7.82;;;;;;;-144.31;100.00;58022.63;5051568;28;20400;-59
2023/01/08 03:07:45;;;;;;;18.38;8.23;;;;;;;-144.31;100.00;58022.63;5046943;28;20041;-59
2023/01/08 03:10:11;;;;;;;15.93;8.32;;;;;;;-144.31;100.00;58022.63;5055844;28;20130;-59
2023/01/08 03:12:49;;;;;;;17.13;9.15;;;;;;;-144.31;100.00;58022.63;5052183;28;20040;-60
2023/01/08 03:15:21;;;;;;;14.07;8.38;;;;;;;-144.31;100.00;58022.63;5054798;28;20040;-59
2023/01/08 03:17:50;;;;;;;14.82;8.05;;;;;;;-144.31;100.00;58022.63;5048139;28;20057;-60
2023/01/08 03:20:20;;;;;;;18.70;9.80;;;;;;;-144.31;100.00;58022.63;5051207;28;20508;-60
2023/01/08 03:22:50;;;;;;;17.77;9.00;;;;;;;-144.31;100.00;58022.63;5058046;28;21661;-60
2023/01/08 03:25:18;;;;;;;16.15;9.18;;;;;;;-144.31;100.00;58022.63;5051997;28;20534;-61
2023/01/08 03:27:51;;;;;;;17.42;9.68;;;;;;;-144.31;100.00;58022.63;5054095;28;20044;-60
2023/01/08 03:30:17;;;;;;;15.07;8.65;;;;;;;-144.31;100.00;58022.63;5072161;28;20067;-61
2023/01/08 03:32:44;;;;;;;16.77;8.95;;;;;;;-144.31;100.00;58022.63;5051680;28;20085;-60
2023/01/08 03:35:14;;;;;;;13.77;8.25;;;;;;;-144.31;100.00;58022.63;5051889;28;20093;-60
2023/01/08 03:37:44;;;;;;;14.05;8.23;;;;;;;-144.31;100.00;58022.63;5049465;28;20550;-60
2023/01/08 03:40:19;;;;;;;17.08;8.77;;;;;;;-144.31;100.00;58022.63;5048998;28;20154;-60
2023/01/08 03:42:45;;;;;;;13.73;8.50;;;;;;;-144.31;100.00;58022.63;5055290;28;20033;-60
2023/01/08 03:45:10;;;;;;;15.93;9.00;;;;;;;-144.31;100.00;58022.63;5065768;28;20398;-60
2023/01/08 03:47:38;;;;;;;17.92;9.10;;;;;;;-144.31;100.00;58022.63;5066570;28;20076;-60
2023/01/08 03:50:08;;;;;;;15.15;8.48;;;;;;;-144.31;100.00;58022.63;5054254;28;20037;-60
2023/01/08 03:52:34;;;;;;;11.57;7.80;;;;;;;-144.31;100.00;58022.63;5048635;28;20119;-61
2023/01/08 03:54:59;;;;;;;13.20;8.02;;;;;;;-144.31;100.00;58022.63;5055297;28;20530;-60
2023/01/08 03:57:27;;;;;;;15.18;8.25;;;;;;;-144.31;100.00;58022.63;5054552;28;20047;-60
2023/01/08 03:59:53;;;;;;;13.25;7.50;;;;;;;-144.31;100.00;58022.63;5057156;28;20500;-62
2023/01/08 04:02:18;;;;;;;9.48;6.97;;;;;;;-144.31;100.00;58022.63;5050581;28;20032;-61
2023/01/08 04:04:44;;;;;;;12.25;7.68;;;;;;;-144.31;100.00;58022.63;5048098;28;20055;-60
2023/01/08 04:07:10;;;;;;;14.43;7.97;;;;;;;-144.31;100.00;58022.63;5056414;28;20035;-61
2023/01/08 04:09:36;;;;;;;14.48;7.75;;;;;;;-144.31;100.00;58022.63;5047172;28;20029;-60
2023/01/08 04:12:02;;;;;;;12.50;7.90;;;;;;;-144.31;100.00;58022.63;5053805;28;20047;-59
2023/01/08 04:14:28;;;;;;;12.88;7.50;;;;;;;-144.31;100.00;58022.63;5051827;28;20217;-59
2023/01/08 04:16:54;;;;;;;14.43;7.70;;;;;;;-144.31;100.00;58022.63;5058328;28;20039;-60
2023/01/08 04:19:19;;;;;;;14.13;7.82;;;;;;;-144.31;100.00;58022.63;5071837;28;20044;-60
2023/01/08 04:21:45;;;;;;;12.98;7.63;;;;;;;-144.31;100.00;58022.63;5048862;28;20051;-62
2023/01/08 04:24:11;;;;;;;12.68;8.07;;;;;;;-144.31;100.00;58022.63;5055992;28;20508;-60
2023/01/08 04:26:37;;;;;;;13.47;7.70;;;;;;;-144.31;100.00;58022.63;5086164;28;20040;-59
2023/01/08 04:29:03;;;;;;;13.00;8.30;;;;;;;-144.31;100.00;58022.63;5048051;28;20281;-60
2023/01/08 04:31:30;;;;;;;11.77;8.00;;;;;;;-144.31;100.00;58022.63;5060296;28;20098;-60
2023/01/08 04:33:55;;;;;;;18.73;8.60;;;;;;;-144.31;100.00;58022.63;5047994;28;20148;-59
2023/01/08 04:36:21;;;;;;;12.75;8.35;;;;;;;-144.31;100.00;58022.63;5049716;28;20162;-61
2023/01/08 04:38:47;;;;;;;12.15;7.82;;;;;;;-144.31;100.00;58022.63;5052275;28;20043;-60
2023/01/08 04:41:12;;;;;;;13.57;7.82;;;;;;;-144.31;100.00;58022.63;5047726;28;20031;-60
2023/01/08 04:43:37;;;;;;;12.00;7.95;;;;;;;-144.31;100.00;58022.63;5056901;28;20406;-60
2023/01/08 04:46:06;;;;;;;15.10;9.82;;;;;;;-144.31;100.00;58022.63;5047278;28;20504;-59
2023/01/08 04:48:32;;;;;;;17.02;9.38;;;;;;;-144.31;100.00;58022.63;5051604;28;20062;-60
2023/01/08 04:50:59;;;;;;;16.20;9.52;;;;;;;-144.31;100.00;58022.63;5055497;28;20037;-60
2023/01/08 04:53:25;;;;;;;15.55;9.70;;;;;;;-144.31;100.00;58022.63;5047557;28;20029;-60
2023/01/08 04:55:50;;;;;;;18.40;10.25;;;;;;;-144.31;100.00;58022.63;5054447;28;20048;-59
2023/01/08 04:58:16;;;;;;;13.38;8.43;;;;;;;-144.31;100.00;58022.63;5048604;28;20029;-60
2023/01/08 05:00:41;;;;;;;15.52;9.07;;;;;;;-144.31;100.00;58022.63;5053394;28;20059;-63
2023/01/08 05:03:07;;;;;;;12.65;8.05;;;;;;;-144.31;100.00;58022.63;5061254;28;20033;-60
2023/01/08 05:05:33;;;;;;;14.60;8.30;;;;;;;-144.31;100.00;58022.63;5054310;28;20042;-60
2023/01/08 05:08:01;;;;;;;14.85;8.65;;;;;;;-144.31;100.00;58022.63;5060777;28;20664;-60
2023/01/08 05:10:27;;;;;;;14.13;8.50;;;;;;;-144.31;100.00;58022.63;5047342;28;20033;-61
2023/01/08 05:12:57;;;;;;;11.10;7.50;;;;;;;-144.31;100.00;58022.63;5045106;28;20393;-60
2023/01/08 05:15:22;;;;;;;17.45;8.35;;;;;;;-144.31;100.00;58022.63;5054158;28;20044;-61
2023/01/08 05:17:48;;;;;;;16.60;8.20;;;;;;;-144.31;100.00;58022.63;5048725;28;20081;-61
2023/01/08 05:20:13;;;;;;;15.63;8.50;;;;;;;-144.31;100.00;58022.63;5055216;28;20055;-61
2023/01/08 05:22:38;;;;;;;13.32;7.97;;;;;;;-144.31;100.00;58022.63;5048324;28;20452;-61
2023/01/08 05:25:04;;;;;;;12.15;7.57;;;;;;;-144.31;100.00;58022.63;5047712;28;20061;-60
2023/01/08 05:27:30;;;;;;;14.48;8.30;;;;;;;-144.31;100.00;58022.63;5052908;28;20083;-61
2023/01/08 05:29:55;;;;;;;16.48;8.15;;;;;;;-144.31;100.00;58022.63;5046623;28;20071;-61
2023/01/08 05:32:20;;;;;;;15.02;8.88;;;;;;;-144.31;100.00;58022.63;5054355;28;20032;-60
2023/01/08 05:34:46;;;;;;;11.75;8.07;;;;;;;-144.31;100.00;58022.63;5047708;28;20473;-60
2023/01/08 05:37:11;;;;;;;13.25;8.27;;;;;;;-144.31;100.00;58022.63;5044920;28;20028;-60
2023/01/08 05:39:37;;;;;;;12.02;8.35;;;;;;;-144.31;100.00;58022.63;5053390;28;20070;-60
2023/01/08 05:42:03;;;;;;;13.57;8.80;;;;;;;-144.31;100.00;58022.63;5048718;28;20598;-59
2023/01/08 05:44:28;;;;;;;14.63;8.05;;;;;;;-144.31;100.00;58022.63;5056774;28;20056;-59
2023/01/08 05:46:54;;;;;;;12.65;8.00;;;;;;;-144.31;100.00;58022.63;5048767;28;20099;-60
2023/01/08 05:49:20;;;;;;;13.70;7.47;;;;;;;-144.31;100.00;58022.63;5043922;28;20037;-59
2023/01/08 05:51:47;;;;;;;11.57;7.70;;;;;;;-144.31;100.00;58022.63;5055285;28;20449;-59
2023/01/08 05:54:12;;;;;;;11.10;7.15;;;;;;;-144.31;100.00;58022.63;5047411;28;20390;-59
2023/01/08 05:56:38;;;;;;;9.98;7.13;;;;;;;-144.31;100.00;58022.63;5057710;28;20033;-60
2023/01/08 05:59:06;;;;;;;11.23;6.95;;;;;;;-144.31;100.00;58022.63;5047253;28;20040;-59
2023/01/08 06:01:35;;;;;;;12.40;7.20;;;;;;;-144.31;100.00;58022.63;5044776;28;20036;-60
2023/01/08 06:04:00;;;;;;;12.63;7.22;;;;;;;-144.31;100.00;58022.63;5050274;28;20035;-60
2023/01/08 06:06:26;;;;;;;11.88;6.93;;;;;;;-144.31;100.00;58022.63;5045600;28;20071;-60
2023/01/08 06:08:51;;;;;;;10.98;6.93;;;;;;;-144.31;100.00;58022.63;5054874;28;20029;-60
2023/01/08 06:11:16;;;;;;;11.57;7.40;;;;;;;-144.31;100.00;58022.63;5044698;28;20032;-61
2023/01/08 06:13:43;;;;;;;14.23;7.50;;;;;;;-144.31;100.00;58022.63;5042314;28;20037;-60
2023/01/08 06:16:09;;;;;;;12.93;7.45;;;;;;;-144.31;100.00;58022.63;5055771;28;20079;-60
2023/01/08 06:18:35;;;;;;;10.45;7.60;;;;;;;-144.31;100.00;58022.63;5044290;28;20043;-60
2023/01/08 06:21:01;;;;;;;11.30;6.95;;;;;;;-144.31;100.00;58022.63;5051499;28;20056;-61
2023/01/08 06:23:27;;;;;;;11.27;7.53;;;;;;;-144.31;100.00;58022.63;5048269;28;20032;-61
2023/01/08 06:25:54;;;;;;;8.88;6.85;;;;;;;-144.31;100.00;58022.63;5049491;28;20554;-60
2023/01/08 06:28:20;;;;;;;12.70;7.57;;;;;;;-144.31;100.00;58022.63;5062305;28;20044;-61
2023/01/08 06:30:45;;;;;;;13.88;7.50;;;;;;;-144.31;100.00;58022.63;5057446;28;20063;-60
2023/01/08 06:33:11;;;;;;;11.32;7.85;;;;;;;-144.31;100.00;58022.63;5066344;28;20405;-60
2023/01/08 06:35:36;;;;;;;13.95;7.60;;;;;;;-144.31;100.00;58022.63;5045397;28;20029;-60
2023/01/08 06:38:04;;;;;;;11.02;6.97;;;;;;;-144.31;100.00;58022.63;5040779;28;20045;-60
2023/01/08 06:40:29;;;;;;;10.95;7.22;;;;;;;-144.31;100.00;58022.63;5045835;28;20079;-60
2023/01/08 06:42:55;;;;;;;13.30;5.95;;;;;;;-144.31;100.00;58022.63;5048255;28;20492;-61
2023/01/08 06:45:21;;;;;;;6.60;4.55;;;;;;;-144.31;100.00;58022.63;5051813;28;20033;-61
2023/01/08 06:47:46;;;;;;;5.32;3.72;;;;;;;-144.31;100.00;58022.63;5042193;28;20037;-61
2023/01/08 06:50:12;;;;;;;5.15;3.55;;;;;;;-144.31;100.00;58022.63;5042601;28;20101;-60
2023/01/08 06:52:38;;;;;;;5.50;3.50;;;;;;;-144.31;100.00;58022.63;5051747;28;20528;-61
2023/01/08 06:55:04;;;;;;;5.32;3.42;;;;;;;-144.31;100.00;58022.63;5050805;28;20063;-60
2023/01/08 06:57:31;;;;;;;6.25;3.65;;;;;;;-144.31;100.00;58022.63;5063112;28;20068;-61
2023/01/08 06:59:56;;;;;;;5.83;3.80;;;;;;;-144.31;100.00;58022.63;5059010;28;20036;-60
2023/01/08 07:02:22;;;;;;;6.32;3.35;;;;;;;-144.31;100.00;58022.63;5045277;28;20265;-59
2023/01/08 07:04:47;;;;;;;5.22;3.20;;;;;;;-144.31;100.00;58022.63;5055394;28;20032;-59
2023/01/08 07:07:13;;;;;;;5.95;3.10;;;;;;;-144.31;100.00;58022.63;5056113;28;20028;-58
2023/01/08 07:09:45;;;;;;;5.45;3.05;;;;;;;-144.31;100.00;58022.63;5049189;28;20036;-60
2023/01/08 07:12:13;;;;;;;4.90;3.20;;;;;;;-144.31;100.00;58022.63;5064598;28;20113;-60
2023/01/08 07:14:39;;;;;;;5.28;3.15;;;;;;;-144.31;100.00;58022.63;5059478;28;20029;-59
2023/01/08 07:17:06;;;;;;;3.90;2.80;;;;;;;-144.31;100.00;58022.63;5047341;28;20543;-61
2023/01/08 07:19:32;;;;;;;5.93;3.40;;;;;;;-144.31;100.00;58022.63;5047007;28;20515;-62
2023/01/08 07:21:57;;;;;;;4.70;2.90;;;;;;;-144.31;100.00;58022.63;5048174;28;20493;-58
2023/01/08 07:24:23;;;;;;;7.00;4.65;;;;;;;-144.31;100.00;58022.63;5047401;28;20068;-63
2023/01/08 07:26:48;;;;;;;8.80;4.45;;;;;;;-144.31;100.00;58022.63;5055188;28;20025;-61
2023/01/08 07:29:13;;;;;;;6.32;4.25;;;;;;;-144.31;100.00;58022.63;5058839;28;20357;-59
2023/01/08 07:31:39;;;;;;;7.43;5.05;;;;;;;-144.31;100.00;58022.63;5057359;28;20120;-61
2023/01/08 07:34:05;;;;;;;4.97;3.50;;;;;;;-144.31;100.00;58022.63;5060632;28;20094;-63
2023/01/08 07:36:30;;;;;;;4.78;2.60;;;;;;;-144.31;100.00;58022.63;5067737;28;20375;-58
2023/01/08 07:38:56;;;;;;;5.55;3.40;;;;;;;-144.31;100.00;58022.63;5045484;28;20036;-57
2023/01/08 07:41:21;;;;;;;4.57;2.97;;;;;;;-144.31;100.00;58022.63;5049988;28;20074;-57
2023/01/08 07:43:47;;;;;;;3.95;2.10;;;;;;;-144.31;100.00;58022.63;5042306;28;20098;-55
2023/01/08 07:46:13;;;;;;;4.45;3.03;;;;;;;-144.31;100.00;58022.63;5075415;28;20333;-57
2023/01/08 07:48:38;;;;;;;4.70;2.30;;;;;;;-144.31;100.00;58022.63;5057367;28;20468;-57
2023/01/08 07:51:06;;;;;;;4.50;2.20;;;;;;;-144.31;100.00;58022.63;5049412;28;20048;-58
2023/01/08 07:53:31;;;;;;;2.58;2.20;;;;;;;-144.31;100.00;58022.63;5060764;28;20140;-56
2023/01/08 07:56:05;;;;;;;4.22;2.30;;;;;;;-144.31;100.00;58022.63;5050815;28;20147;-56
2023/01/08 07:58:30;;;;;;;5.45;2.25;;;;;;;-144.31;100.00;58022.63;5045919;28;20045;-56
2023/01/08 08:00:56;;;;;;;4.72;2.63;;;;;;;-144.31;100.00;58022.63;5048895;28;20070;-57
2023/01/08 08:03:22;;;;;;;6.50;2.60;;;;;;;-144.31;100.00;58022.63;5049592;28;20033;-51
2023/01/08 08:05:48;;;;;;;4.57;2.47;;;;;;;-144.31;100.00;58022.63;5056496;28;20039;-54
2023/01/08 08:08:13;;;;;;;2.65;2.03;;;;;;;-144.31;100.00;58022.63;5043867;28;20592;-52
2023/01/08 08:10:43;;;;;;;17.83;5.13;;;;;;;-144.31;100.00;58022.63;5042672;28;20044;-55
2023/01/08 08:13:09;;;;;;;7.10;2.33;;;;;;;-144.31;100.00;58022.63;5056023;28;20058;-53
2023/01/08 08:15:35;;;;;;;5.03;2.63;;;;;;;-144.31;100.00;58022.63;5048884;28;20033;-53
2023/01/08 08:18:01;;;;;;;5.68;2.60;;;;;;;-144.31;100.00;58022.63;5046713;28;20127;-56
2023/01/08 08:20:27;;;;;;;8.57;2.65;;;;;;;-144.31;100.00;58022.63;5045269;28;20039;-53
2023/01/08 08:22:59;;;;;;;4.55;2.50;;;;;;;-144.31;100.00;58022.63;5048922;28;20098;-57
2023/01/08 08:25:25;;;;;;;4.10;2.17;;;;;;;-144.31;100.00;58022.63;5055337;28;20036;-55
2023/01/08 08:27:50;;;;;;;4.22;2.33;;;;;;;-144.31;100.00;58022.63;5045314;28;20067;-55
2023/01/08 08:30:16;;;;;;;4.00;2.30;;;;;;;-144.31;100.00;58022.63;5050328;28;20044;-59
2023/01/08 08:32:41;;;;;;;6.05;2.50;;;;;;;-144.31;100.00;58022.63;5053002;28;20033;-53
2023/01/08 08:35:09;;;;;;;3.33;2.13;;;;;;;-144.31;100.00;58022.63;5047936;28;20033;-57
2023/01/08 08:37:35;;;;;;;5.25;2.28;;;;;;;-144.31;100.00;58022.63;5059376;28;20065;-57
2023/01/08 08:40:00;;;;;;;7.78;2.70;;;;;;;-144.31;100.00;58022.63;5045642;28;20661;-55
2023/01/08 08:42:25;;;;;;;5.57;2.65;;;;;;;-144.31;100.00;58022.63;5049469;28;20043;-57
2023/01/08 08:44:51;;;;;;;3.90;2.33;;;;;;;-144.31;100.00;58022.63;5059995;28;20124;-57
2023/01/08 08:47:16;;;;;;;5.22;2.60;;;;;;;-144.31;100.00;58022.63;5051359;28;20378;-55
2023/01/08 08:49:42;;;;;;;6.05;3.13;;;;;;;-144.31;100.00;58022.63;5056518;28;20501;-51
2023/01/08 08:52:07;;;;;;;4.38;2.63;;;;;;;-144.31;100.00;58022.63;5047740;28;20063;-55
2023/01/08 08:54:33;;;;;;;5.57;2.92;;;;;;;-144.31;100.00;58022.63;5045474;28;20417;-58
2023/01/08 08:57:01;;;;;;;5.38;3.17;;;;;;;-144.31;100.00;58022.63;5053651;28;20505;-55
2023/01/08 08:59:26;;;;;;;6.40;3.30;;;;;;;-144.31;100.00;58022.63;5046335;28;20123;-56
2023/01/08 09:01:51;;;;;;;6.82;3.17;;;;;;;-144.31;100.00;58022.63;5056274;28;20044;-53
2023/01/08 09:04:17;;;;;;;7.47;3.50;;;;;;;-144.31;100.00;58022.63;5047393;28;20027;-56
2023/01/08 09:06:45;;;;;;;8.77;3.95;;;;;;;-144.31;100.00;58022.63;5047304;28;21051;-56
2023/01/08 09:09:10;;;;;;;8.05;5.38;;;;;;;-144.31;100.00;58022.63;5051790;28;20048;-56
2023/01/08 09:11:36;;;;;;;6.13;4.70;;;;;;;-144.31;100.00;58022.63;5046562;28;20036;-52
2023/01/08 09:14:01;;;;;;;8.50;4.80;;;;;;;-144.31;100.00;58022.63;5053587;28;20094;-55
2023/01/08 09:16:27;;;;;;;6.10;2.97;;;;;;;-144.31;100.00;58022.63;5054583;28;20043;-53
2023/01/08 09:18:52;;;;;;;6.28;3.10;;;;;;;-144.31;100.00;58022.63;5052218;28;20033;-52
2023/01/08 09:21:17;;;;;;;5.55;3.22;;;;;;;-144.31;100.00;58022.63;5052971;28;20128;-54
2023/01/08 09:23:46;;;;;;;29.10;7.70;;;;;;;-144.31;100.00;58022.63;5047986;28;20032;-57
2023/01/08 09:26:12;;;;;;;8.52;4.20;;;;;;;-144.31;100.00;58022.63;5054402;28;20036;-54
2023/01/08 09:28:38;;;;;;;6.88;2.75;;;;;;;-144.31;100.00;58022.63;5053893;28;20422;-58
2023/01/08 09:31:03;;;;;;;5.50;2.53;;;;;;;-144.31;100.00;58022.63;5067151;28;20032;-57
2023/01/08 09:33:30;;;;;;;3.40;2.40;;;;;;;-144.31;100.00;58022.63;5057271;28;20489;-56
2023/01/08 09:35:55;;;;;;;3.92;2.47;;;;;;;-144.31;100.00;58022.63;5057436;28;20028;-53
2023/01/08 09:38:21;;;;;;;4.10;2.72;;;;;;;-144.31;100.00;58022.63;5069293;28;20056;-54
2023/01/08 09:41:04;;;;;;;4.38;2.40;;;;;;;-144.31;100.00;58022.63;5047964;28;20032;-53
2023/01/08 09:43:35;;;;;;;4.03;2.28;;;;;;;-144.31;100.00;58022.63;5048794;28;20547;-54
2023/01/08 09:46:05;;;;;;;6.43;2.50;;;;;;;-144.31;100.00;58022.63;5051692;28;20144;-56
2023/01/08 09:48:34;;;;;;;5.90;3.35;;;;;;;-144.31;100.00;58022.63;5047955;28;20466;-55
2023/01/08 09:51:01;;;;;;;9.05;5.50;;;;;;;-144.31;100.00;58022.63;5046565;28;20037;-57
2023/01/08 09:53:27;;;;;;;7.05;3.40;;;;;;;-144.31;100.00;58022.63;5050611;28;20033;-56
2023/01/08 09:55:59;;;;;;;5.65;3.17;;;;;;;-144.31;100.00;58022.63;5049977;28;20040;-56
2023/01/08 09:58:35;;;;;;;6.05;3.60;;;;;;;-144.31;100.00;58022.63;5055167;28;20456;-56
2023/01/08 10:01:05;;;;;;;5.22;3.33;;;;;;;-144.31;100.00;58022.63;5054274;28;20508;-58
2023/01/08 10:03:46;;;;;;;3.47;2.25;;;;;;;-144.31;100.00;58022.63;5044814;28;20040;-56
2023/01/08 10:06:14;;;;;;;3.53;2.30;;;;;;;-144.31;100.00;58022.63;5052187;28;20408;-58
2023/01/08 10:08:41;;;;;;;15.98;8.35;;;;;;;-144.31;100.00;58022.63;5045777;28;20028;-55
2023/01/08 10:11:09;;;;;;;6.82;3.30;;;;;;;-144.31;100.00;58022.63;5043136;28;20497;-59
2023/01/08 10:13:49;;;;;;;6.30;3.42;;;;;;;-144.31;100.00;58022.63;5052283;28;20132;-56
2023/01/08 10:17:23;;;;;;;13.07;6.60;;;;;;;-144.31;100.00;58022.63;5044844;28;20037;-58
2023/01/08 10:20:44;;;;;;;30.80;13.15;;;;;;;-144.31;100.00;58022.63;5047883;28;20484;-56
2023/01/08 10:23:54;;;;;;;9.77;5.35;;;;;;;-144.31;100.00;58022.63;5048945;28;20036;-59
2023/01/08 10:26:42;;;;;;;4.63;2.50;;;;;;;-144.31;100.00;58022.63;5051614;28;20033;-58
2023/01/08 10:29:49;;;;;;;5.10;2.10;;;;;;;-144.31;100.00;58022.63;5058663;28;20045;-56
2023/01/08 10:33:31;;;;;;;3.80;2.33;;;;;;;-144.31;100.00;58022.63;5056005;28;20147;-58
2023/01/08 10:36:56;;;;;;;4.55;2.10;;;;;;;-144.31;100.00;58022.63;5046585;28;20076;-58
2023/01/08 10:40:31;;;;;;;3.38;2.05;;;;;;;-144.31;100.00;58022.63;5044308;28;20032;-59
2023/01/08 10:44:01;;;;;;;3.30;1.90;;;;;;;-144.31;100.00;58022.63;5055567;28;20029;-58
2023/01/08 10:46:57;;;;;;;3.88;2.20;;;;;;;-144.31;100.00;58022.63;5057092;28;20098;-58
2023/01/08 10:50:02;;;;;;;4.10;2.25;;;;;;;-144.31;100.00;58022.63;5047707;28;20086;-59
2023/01/08 10:53:29;;;;;;;4.30;2.80;;;;;;;-144.31;100.00;58022.63;5043748;28;20051;-59
2023/01/08 10:56:51;;;;;;;5.15;2.80;;;;;;;-144.31;100.00;58022.63;5057109;28;20397;-59
2023/01/08 11:00:41;;;;;;;3.88;2.13;;;;;;;-144.31;100.00;58022.63;5057824;28;20071;-59
2023/01/08 11:03:49;;;;;;;2.85;1.90;;;;;;;-144.31;100.00;58022.63;5049247;28;20053;-59
2023/01/08 11:07:21;;;;;;;2.97;1.75;;;;;;;-144.31;100.00;58022.63;5087835;28;20062;-59
2023/01/08 11:09:50;;;;;;;2.78;1.80;;;;;;;-144.31;100.00;58022.63;5047792;28;20256;-58
2023/01/08 11:12:39;;;;;;;3.30;2.00;;;;;;;-144.31;100.00;58022.63;5049002;28;20051;-59
2023/01/08 11:16:18;;;;;;;3.47;2.15;;;;;;;-144.31;100.00;58022.63;5054253;28;20037;-59
2023/01/08 11:19:46;;;;;;;5.32;2.72;;;;;;;-144.31;100.00;58022.63;5069519;28;20417;-59